createdAt,value
2024-04-15T00:00:04.440Z,515.00
2024-04-15T00:01:04.541Z,516.00
2024-04-15T00:02:04.588Z,518.00
2024-04-15T00:03:04.700Z,519.00
2024-04-15T00:04:04.773Z,520.00
2024-04-15T00:05:04.816Z,516.00
2024-04-15T00:06:04.832Z,516.00
2024-04-15T00:07:04.922Z,518.00
2024-04-15T00:08:05.001Z,517.00
2024-04-15T00:09:05.036Z,517.00
2024-04-15T00:10:05.150Z,516.00
2024-04-15T00:11:05.238Z,515.00
2024-04-15T00:12:05.221Z,515.00
2024-04-15T00:13:05.323Z,515.00
2024-04-15T00:14:05.364Z,517.00
2024-04-15T00:15:05.463Z,516.00
2024-04-15T00:16:05.692Z,514.00
2024-04-15T00:17:05.599Z,513.00
2024-04-15T00:18:05.733Z,513.00
2024-04-15T00:19:05.816Z,512.00
2024-04-15T00:20:05.792Z,511.00
2024-04-15T00:21:05.892Z,512.00
2024-04-15T00:22:05.967Z,512.00
2024-04-15T00:23:06.006Z,512.00
2024-04-15T00:24:06.066Z,510.00
2024-04-15T00:25:06.176Z,511.00
2024-04-15T00:26:06.209Z,509.00
2024-04-15T00:27:06.288Z,510.00
2024-04-15T00:28:06.355Z,509.00
2024-04-15T00:29:06.432Z,510.00
2024-04-15T00:30:06.510Z,514.00
2024-04-15T00:31:06.618Z,515.00
2024-04-15T00:32:06.665Z,518.00
2024-04-15T00:33:06.862Z,517.00
2024-04-15T00:34:06.837Z,514.00
2024-04-15T00:35:06.916Z,513.00
2024-04-15T00:36:06.959Z,514.00
2024-04-15T00:37:07.049Z,512.00
2024-04-15T00:38:07.110Z,511.00
2024-04-15T00:39:07.201Z,512.00
2024-04-15T00:40:07.271Z,514.00
2024-04-15T00:41:07.338Z,515.00
2024-04-15T00:42:07.382Z,515.00
2024-04-15T00:43:07.531Z,518.00
2024-04-15T00:44:07.530Z,519.00
2024-04-15T00:45:07.632Z,520.00
2024-04-15T00:46:07.827Z,521.00
2024-04-15T00:47:07.826Z,521.00
2024-04-15T00:48:07.940Z,522.00
2024-04-15T00:49:07.942Z,524.00
2024-04-15T00:50:08.028Z,521.00
2024-04-15T00:51:08.113Z,519.00
2024-04-15T00:52:08.242Z,518.00
2024-04-15T00:53:08.244Z,519.00
2024-04-15T00:54:08.322Z,519.00
2024-04-15T00:55:08.468Z,518.00
2024-04-15T00:56:08.523Z,521.00
2024-04-15T00:57:08.599Z,521.00
2024-04-15T00:58:08.719Z,521.00
2024-04-15T00:59:08.757Z,518.00
2024-04-15T01:00:08.877Z,520.00
2024-04-15T01:01:09.130Z,522.00
2024-04-15T01:02:09.104Z,521.00
2024-04-15T01:03:09.164Z,523.00
2024-04-15T01:04:09.313Z,522.00
2024-04-15T01:05:09.308Z,524.00
2024-04-15T01:06:09.400Z,525.00
2024-04-15T01:07:09.567Z,524.00
2024-04-15T01:08:09.596Z,522.00
2024-04-15T01:09:09.692Z,522.00
2024-04-15T01:10:09.933Z,521.00
2024-04-15T01:11:09.938Z,522.00
2024-04-15T01:12:09.957Z,524.00
2024-04-15T01:13:10.105Z,525.00
2024-04-15T01:14:10.158Z,524.00
2024-04-15T01:15:10.242Z,524.00
2024-04-15T01:16:10.405Z,524.00
2024-04-15T01:17:10.491Z,525.00
2024-04-15T01:18:10.621Z,521.00
2024-04-15T01:19:10.655Z,523.00
2024-04-15T01:20:10.733Z,521.00
2024-04-15T01:21:10.831Z,521.00
2024-04-15T01:22:11.164Z,520.00
2024-04-15T01:23:11.016Z,518.00
2024-04-15T01:24:11.121Z,518.00
2024-04-15T01:25:11.254Z,517.00
2024-04-15T01:26:11.405Z,516.00
2024-04-15T01:27:11.406Z,515.00
2024-04-15T01:28:11.532Z,514.00
2024-04-15T01:29:11.606Z,514.00
2024-04-15T01:30:11.674Z,514.00
2024-04-15T01:31:11.873Z,513.00
2024-04-15T01:32:11.987Z,512.00
2024-04-15T01:33:11.971Z,512.00
2024-04-15T01:34:12.132Z,514.00
2024-04-15T01:35:12.169Z,516.00
2024-04-15T01:36:12.276Z,516.00
2024-04-15T01:37:12.409Z,518.00
2024-04-15T01:38:12.404Z,519.00
2024-04-15T01:39:12.516Z,517.00
2024-04-15T01:40:12.740Z,516.00
2024-04-15T01:41:12.726Z,515.00
2024-04-15T01:42:12.768Z,515.00
2024-04-15T01:43:12.946Z,514.00
2024-04-15T01:44:12.960Z,516.00
2024-04-15T01:45:13.077Z,516.00
2024-04-15T01:46:13.212Z,518.00
2024-04-15T01:47:13.232Z,518.00
2024-04-15T01:48:13.340Z,519.00
2024-04-15T01:49:13.525Z,518.00
2024-04-15T01:50:13.502Z,519.00
2024-04-15T01:51:13.612Z,519.00
2024-04-15T01:52:13.753Z,517.00
2024-04-15T01:53:13.762Z,516.00
2024-04-15T01:54:13.840Z,515.00
2024-04-15T01:55:14.041Z,515.00
2024-04-15T01:56:14.085Z,515.00
2024-04-15T01:57:14.148Z,516.00
2024-04-15T01:58:14.288Z,515.00
2024-04-15T01:59:14.317Z,515.00
2024-04-15T02:00:14.427Z,516.00
2024-04-15T02:01:14.577Z,518.00
2024-04-15T02:02:14.580Z,519.00
2024-04-15T02:03:14.785Z,521.00
2024-04-15T02:04:14.793Z,521.00
2024-04-15T02:05:14.829Z,520.00
2024-04-15T02:06:14.977Z,517.00
2024-04-15T02:07:15.090Z,516.00
2024-04-15T02:08:15.090Z,519.00
2024-04-15T02:09:15.213Z,521.00
2024-04-15T02:10:15.395Z,521.00
2024-04-15T02:12:15.462Z,520.00
2024-04-15T02:13:15.614Z,520.00
2024-04-15T02:14:15.640Z,520.00
2024-04-15T02:15:15.730Z,521.00
2024-04-15T02:16:15.958Z,523.00
2024-04-15T02:17:15.914Z,522.00
2024-04-15T02:18:16.087Z,522.00
2024-04-15T02:19:16.108Z,521.00
2024-04-15T02:20:16.202Z,521.00
2024-04-15T02:21:16.339Z,520.00
2024-04-15T02:22:16.475Z,521.00
2024-04-15T02:23:16.458Z,520.00
2024-04-15T02:24:16.567Z,518.00
2024-04-15T02:25:16.767Z,516.00
2024-04-15T02:26:16.860Z,515.00
2024-04-15T02:27:16.857Z,513.00
2024-04-15T02:28:16.949Z,513.00
2024-04-15T02:29:17.079Z,515.00
2024-04-15T02:30:17.152Z,516.00
2024-04-15T02:31:17.277Z,518.00
2024-04-15T02:32:17.384Z,517.00
2024-04-15T02:33:17.406Z,516.00
2024-04-15T02:34:17.555Z,515.00
2024-04-15T02:35:17.607Z,517.00
2024-04-15T02:36:17.709Z,517.00
2024-04-15T02:37:17.850Z,517.00
2024-04-15T02:38:17.894Z,517.00
2024-04-15T02:39:17.958Z,518.00
2024-04-15T02:40:18.175Z,516.00
2024-04-15T02:41:18.196Z,514.00
2024-04-15T02:42:18.273Z,512.00
2024-04-15T02:43:18.409Z,510.00
2024-04-15T02:44:18.448Z,512.00
2024-04-15T02:45:18.547Z,515.00
2024-04-15T02:46:18.730Z,519.00
2024-04-15T02:47:18.809Z,519.00
2024-04-15T02:48:18.962Z,520.00
2024-04-15T02:49:19.018Z,520.00
2024-04-15T02:50:19.049Z,521.00
2024-04-15T02:51:19.171Z,523.00
2024-04-15T02:52:19.269Z,524.00
2024-04-15T02:53:19.331Z,523.00
2024-04-15T02:54:19.441Z,521.00
2024-04-15T02:55:22.955Z,521.00
2024-04-15T02:56:19.540Z,521.00
2024-04-15T02:57:19.531Z,522.00
2024-04-15T02:58:19.609Z,522.00
2024-04-15T02:59:19.540Z,521.00
2024-04-15T03:00:19.533Z,519.00
2024-04-15T03:01:20.179Z,518.00
2024-04-15T03:02:19.513Z,518.00
2024-04-15T03:03:19.525Z,518.00
2024-04-15T03:04:19.614Z,521.00
2024-04-15T03:05:19.582Z,522.00
2024-04-15T03:06:19.590Z,521.00
2024-04-15T03:07:19.588Z,519.00
2024-04-15T03:08:19.557Z,518.00
2024-04-15T03:09:19.586Z,517.00
2024-04-15T03:10:19.582Z,518.00
2024-04-15T03:11:19.551Z,517.00
2024-04-15T03:12:19.561Z,516.00
2024-04-15T03:13:19.586Z,518.00
2024-04-15T03:14:19.561Z,516.00
2024-04-15T03:15:19.594Z,515.00
2024-04-15T03:16:25.774Z,515.00
2024-04-15T03:17:21.598Z,516.00
2024-04-15T03:18:19.643Z,517.00
2024-04-15T03:19:19.751Z,520.00
2024-04-15T03:20:19.658Z,520.00
2024-04-15T03:21:19.649Z,519.00
2024-04-15T03:22:19.687Z,519.00
2024-04-15T03:23:19.655Z,518.00
2024-04-15T03:24:19.663Z,519.00
2024-04-15T03:25:19.674Z,520.00
2024-04-15T03:26:19.650Z,521.00
2024-04-15T03:27:19.672Z,519.00
2024-04-15T03:28:19.695Z,520.00
2024-04-15T03:29:19.705Z,519.00
2024-04-15T03:30:19.781Z,516.00
2024-04-15T03:31:20.006Z,513.00
2024-04-15T03:32:20.073Z,512.00
2024-04-15T03:33:20.103Z,513.00
2024-04-15T03:34:20.268Z,513.00
2024-04-15T03:35:20.378Z,516.00
2024-04-15T03:36:20.418Z,515.00
2024-04-15T03:37:20.565Z,513.00
2024-04-15T03:38:20.637Z,514.00
2024-04-15T03:39:20.708Z,514.00
2024-04-15T03:40:20.891Z,515.00
2024-04-15T03:41:20.922Z,516.00
2024-04-15T03:42:21.036Z,516.00
2024-04-15T03:43:21.145Z,513.00
2024-04-15T03:44:21.262Z,512.00
2024-04-15T03:45:21.338Z,512.00
2024-04-15T03:46:21.520Z,511.00
2024-04-15T03:47:21.607Z,511.00
2024-04-15T03:48:21.625Z,513.00
2024-04-15T03:49:21.805Z,516.00
2024-04-15T03:50:21.913Z,517.00
2024-04-15T03:51:21.962Z,516.00
2024-04-15T03:52:22.054Z,515.00
2024-04-15T03:53:22.163Z,513.00
2024-04-15T03:54:22.258Z,514.00
2024-04-15T03:55:22.411Z,515.00
2024-04-15T03:56:22.474Z,516.00
2024-04-15T03:57:22.622Z,519.00
2024-04-15T03:58:22.771Z,521.00
2024-04-15T03:59:22.788Z,520.00
2024-04-15T04:00:22.899Z,520.00
2024-04-15T04:01:23.063Z,518.00
2024-04-15T04:02:23.105Z,518.00
2024-04-15T04:03:23.260Z,518.00
2024-04-15T04:04:23.435Z,518.00
2024-04-15T04:05:23.427Z,518.00
2024-04-15T04:06:23.523Z,518.00
2024-04-15T04:07:23.696Z,519.00
2024-04-15T04:08:23.746Z,520.00
2024-04-15T04:09:23.848Z,519.00
2024-04-15T04:10:31.133Z,514.00
2024-04-15T04:11:31.006Z,520.00
2024-04-15T04:12:31.012Z,522.00
2024-04-15T04:13:31.015Z,523.00
2024-04-15T04:14:31.015Z,524.00
2024-04-15T04:15:31.451Z,525.00
2024-04-15T04:16:31.007Z,523.00
2024-04-15T04:17:31.088Z,524.00
2024-04-15T04:18:31.106Z,523.00
2024-04-15T04:19:31.032Z,526.00
2024-04-15T04:20:31.024Z,526.00
2024-04-15T04:21:31.031Z,525.00
2024-04-15T04:22:31.026Z,524.00
2024-04-15T04:23:31.004Z,524.00
2024-04-15T04:24:31.055Z,526.00
2024-04-15T04:25:31.017Z,525.00
2024-04-15T04:26:31.107Z,524.00
2024-04-15T04:27:31.117Z,523.00
2024-04-15T04:28:31.123Z,523.00
2024-04-15T04:29:31.073Z,523.00
2024-04-15T04:30:31.080Z,522.00
2024-04-15T04:31:38.212Z,512.00
2024-04-15T04:32:38.259Z,520.00
2024-04-15T04:33:38.231Z,521.00
2024-04-15T04:34:38.271Z,521.00
2024-04-15T04:35:38.232Z,519.00
2024-04-15T04:36:38.287Z,520.00
2024-04-15T04:37:41.199Z,520.00
2024-04-15T04:38:38.262Z,522.00
2024-04-15T04:39:38.261Z,524.00
2024-04-15T04:40:38.251Z,526.00
2024-04-15T04:41:38.274Z,525.00
2024-04-15T04:42:38.263Z,527.00
2024-04-15T04:43:38.263Z,529.00
2024-04-15T04:44:38.239Z,528.00
2024-04-15T04:45:38.275Z,530.00
2024-04-15T04:46:38.288Z,529.00
2024-04-15T04:47:38.285Z,529.00
2024-04-15T04:48:38.275Z,531.00
2024-04-15T04:49:38.292Z,531.00
2024-04-15T04:50:38.269Z,529.00
2024-04-15T04:51:38.399Z,528.00
2024-04-15T04:52:38.380Z,526.00
2024-04-15T04:53:38.299Z,527.00
2024-04-15T04:54:38.256Z,528.00
2024-04-15T04:55:38.307Z,527.00
2024-04-15T04:56:38.308Z,526.00
2024-04-15T04:57:38.331Z,526.00
2024-04-15T04:58:38.293Z,523.00
2024-04-15T04:59:38.302Z,523.00
2024-04-15T05:00:38.271Z,525.00
2024-04-15T05:01:38.588Z,525.00
2024-04-15T05:02:38.492Z,526.00
2024-04-15T05:03:38.658Z,525.00
2024-04-15T05:04:38.743Z,525.00
2024-04-15T05:05:38.815Z,524.00
2024-04-15T05:06:38.934Z,524.00
2024-04-15T05:07:39.122Z,524.00
2024-04-15T05:08:39.139Z,522.00
2024-04-15T05:09:39.248Z,523.00
2024-04-15T05:10:39.323Z,523.00
2024-04-15T05:11:39.558Z,523.00
2024-04-15T05:12:39.570Z,522.00
2024-04-15T05:13:39.683Z,521.00
2024-04-15T05:14:39.804Z,520.00
2024-04-15T05:15:39.907Z,520.00
2024-04-15T05:16:40.189Z,519.00
2024-04-15T05:17:40.183Z,520.00
2024-04-15T05:18:40.341Z,519.00
2024-04-15T05:19:40.352Z,519.00
2024-04-15T05:20:40.466Z,518.00
2024-04-15T05:21:40.582Z,517.00
2024-04-15T05:22:40.745Z,517.00
2024-04-15T05:23:40.812Z,515.00
2024-04-15T05:24:40.953Z,518.00
2024-04-15T05:25:41.041Z,519.00
2024-04-15T05:26:42.876Z,519.00
2024-04-15T05:27:41.182Z,520.00
2024-04-15T05:28:41.206Z,519.00
2024-04-15T05:29:41.222Z,522.00
2024-04-15T05:30:41.236Z,523.00
2024-04-15T05:31:41.340Z,527.00
2024-04-15T05:32:41.488Z,528.00
2024-04-15T05:33:41.480Z,526.00
2024-04-15T05:34:41.636Z,525.00
2024-04-15T05:35:41.701Z,528.00
2024-04-15T05:36:41.887Z,529.00
2024-04-15T05:37:41.939Z,530.00
2024-04-15T05:38:42.071Z,534.00
2024-04-15T05:39:42.825Z,532.00
2024-04-15T05:40:42.181Z,532.00
2024-04-15T05:41:42.241Z,534.00
2024-04-15T05:42:42.248Z,538.00
2024-04-15T05:43:42.366Z,546.00
2024-04-15T05:44:42.258Z,550.00
2024-04-15T05:45:42.314Z,559.00
2024-04-15T05:46:42.429Z,573.00
2024-04-15T05:47:42.586Z,608.00
2024-04-15T05:48:42.705Z,631.00
2024-04-15T05:49:42.762Z,631.00
2024-04-15T05:50:42.826Z,636.00
2024-04-15T05:51:42.982Z,636.00
2024-04-15T05:52:43.004Z,640.00
2024-04-15T05:53:43.144Z,656.00
2024-04-15T05:54:43.212Z,692.00
2024-04-15T05:55:43.299Z,811.00
2024-04-15T05:56:43.429Z,802.00
2024-04-15T05:57:43.606Z,849.00
2024-04-15T05:58:43.574Z,985.00
2024-04-15T05:59:43.652Z,998.00
2024-04-15T06:00:44.156Z,1016.00
2024-04-15T06:01:43.832Z,1090.00
2024-04-15T06:02:43.855Z,1123.00
2024-04-15T06:03:43.992Z,1139.00
2024-04-15T06:04:43.923Z,1148.00
2024-04-15T06:05:43.964Z,1171.00
2024-04-15T06:06:44.091Z,1199.00
2024-04-15T06:07:44.054Z,1236.00
2024-04-15T06:08:44.184Z,1278.00
2024-04-15T06:09:44.226Z,1283.00
2024-04-15T06:10:44.293Z,1280.00
2024-04-15T06:11:44.264Z,1292.00
2024-04-15T06:12:44.316Z,1313.00
2024-04-15T06:13:44.376Z,1342.00
2024-04-15T06:14:44.409Z,1361.00
2024-04-15T06:15:44.607Z,1374.00
2024-04-15T06:16:44.594Z,1383.00
2024-04-15T06:17:44.603Z,1396.00
2024-04-15T06:18:44.651Z,1406.00
2024-04-15T06:19:44.637Z,1418.00
2024-04-15T06:20:44.666Z,1431.00
2024-04-15T06:21:44.764Z,1432.00
2024-04-15T06:22:44.749Z,1434.00
2024-04-15T06:23:44.794Z,1440.00
2024-04-15T06:24:44.880Z,1450.00
2024-04-15T06:25:44.909Z,1453.00
2024-04-15T06:26:44.974Z,1454.00
2024-04-15T06:27:45.175Z,1457.00
2024-04-15T06:28:45.052Z,1460.00
2024-04-15T06:29:45.082Z,1464.00
2024-04-15T06:30:45.248Z,1469.00
2024-04-15T06:31:45.207Z,1469.00
2024-04-15T06:32:45.282Z,1467.00
2024-04-15T06:33:45.250Z,1472.00
2024-04-15T06:34:45.246Z,1476.00
2024-04-15T06:35:45.235Z,1480.00
2024-04-15T06:36:45.282Z,1485.00
2024-04-15T06:37:45.246Z,1488.00
2024-04-15T06:38:45.248Z,1490.00
2024-04-15T06:39:45.334Z,1488.00
2024-04-15T06:40:45.293Z,1482.00
2024-04-15T06:41:45.370Z,1477.00
2024-04-15T06:42:45.408Z,1467.00
2024-04-15T06:43:45.355Z,1453.00
2024-04-15T06:44:45.390Z,1450.00
2024-04-15T06:45:45.407Z,1206.00
2024-04-15T06:46:45.427Z,1250.00
2024-04-15T06:47:45.418Z,1349.00
2024-04-15T06:48:45.425Z,1340.00
2024-04-15T06:49:45.439Z,1317.00
2024-04-15T06:50:45.498Z,1304.00
2024-04-15T06:51:45.591Z,1289.00
2024-04-15T06:52:45.616Z,1271.00
2024-04-15T06:53:45.689Z,1030.00
2024-04-15T06:54:45.719Z,910.00
2024-04-15T06:55:45.741Z,890.00
2024-04-15T06:56:45.828Z,882.00
2024-04-15T06:57:45.832Z,880.00
2024-04-15T06:58:45.911Z,869.00
2024-04-15T06:59:45.963Z,860.00
2024-04-15T07:00:46.073Z,850.00
2024-04-15T07:01:46.195Z,838.00
2024-04-15T07:02:46.180Z,827.00
2024-04-15T07:03:46.313Z,813.00
2024-04-15T07:04:46.301Z,805.00
2024-04-15T07:05:46.317Z,800.00
2024-04-15T07:06:48.535Z,796.00
2024-04-15T07:07:46.568Z,795.00
2024-04-15T07:08:46.618Z,794.00
2024-04-15T07:09:46.674Z,790.00
2024-04-15T07:10:46.702Z,789.00
2024-04-15T07:11:46.757Z,786.00
2024-04-15T07:12:46.833Z,785.00
2024-04-15T07:13:46.815Z,779.00
2024-04-15T07:14:46.863Z,773.00
2024-04-15T07:15:46.971Z,762.00
2024-04-15T07:16:46.988Z,752.00
2024-04-15T07:17:47.077Z,745.00
2024-04-15T07:18:47.082Z,739.00
2024-04-15T07:19:47.139Z,737.00
2024-04-15T07:20:47.082Z,731.00
2024-04-15T07:21:47.142Z,725.00
2024-04-15T07:22:47.145Z,721.00
2024-04-15T07:23:47.220Z,715.00
2024-04-15T07:24:47.322Z,713.00
2024-04-15T07:25:47.371Z,706.00
2024-04-15T07:26:47.521Z,699.00
2024-04-15T07:27:47.555Z,695.00
2024-04-15T07:28:47.639Z,686.00
2024-04-15T07:29:47.740Z,679.00
2024-04-15T07:30:47.834Z,670.00
2024-04-15T07:31:47.924Z,667.00
2024-04-15T07:32:48.071Z,660.00
2024-04-15T07:33:48.092Z,653.00
2024-04-15T07:34:48.198Z,648.00
2024-04-15T07:35:48.286Z,646.00
2024-04-15T07:36:48.397Z,648.00
2024-04-15T07:37:48.485Z,650.00
2024-04-15T07:38:48.626Z,654.00
2024-04-15T07:39:48.750Z,657.00
2024-04-15T07:40:48.770Z,658.00
2024-04-15T07:41:48.946Z,656.00
2024-04-15T07:42:48.991Z,669.00
2024-04-15T07:43:49.059Z,725.00
2024-04-15T07:44:49.187Z,733.00
2024-04-15T07:45:49.271Z,737.00
2024-04-15T07:46:49.387Z,742.00
2024-04-15T07:47:49.495Z,758.00
2024-04-15T07:48:49.586Z,767.00
2024-04-15T07:49:49.621Z,769.00
2024-04-15T07:50:49.715Z,771.00
2024-04-15T07:51:49.805Z,771.00
2024-04-15T07:52:49.862Z,770.00
2024-04-15T07:53:49.928Z,766.00
2024-04-15T07:54:50.051Z,758.00
2024-04-15T07:55:50.121Z,748.00
2024-04-15T07:56:50.232Z,737.00
2024-04-15T07:57:50.345Z,728.00
2024-04-15T07:58:50.372Z,721.00
2024-04-15T07:59:50.479Z,717.00
2024-04-15T08:00:50.648Z,714.00
2024-04-15T08:01:50.778Z,712.00
2024-04-15T08:02:50.815Z,710.00
2024-04-15T08:03:50.902Z,709.00
2024-04-15T08:04:51.003Z,708.00
2024-04-15T08:05:51.026Z,703.00
2024-04-15T08:06:59.940Z,701.00
2024-04-15T08:07:52.176Z,700.00
2024-04-15T08:08:51.130Z,701.00
2024-04-15T08:09:51.127Z,705.00
2024-04-15T08:10:51.139Z,703.00
2024-04-15T08:11:51.132Z,707.00
2024-04-15T08:12:51.137Z,712.00
2024-04-15T08:13:51.143Z,716.00
2024-04-15T08:14:51.187Z,721.00
2024-04-15T08:15:51.195Z,727.00
2024-04-15T08:16:51.315Z,733.00
2024-04-15T08:17:51.188Z,737.00
2024-04-15T08:18:51.233Z,746.00
2024-04-15T08:19:51.249Z,755.00
2024-04-15T08:20:51.319Z,762.00
2024-04-15T08:21:51.433Z,771.00
2024-04-15T08:22:51.500Z,779.00
2024-04-15T08:23:51.551Z,785.00
2024-04-15T08:24:51.660Z,793.00
2024-04-15T08:25:51.693Z,804.00
2024-04-15T08:26:51.858Z,808.00
2024-04-15T08:27:51.914Z,810.00
2024-04-15T08:28:51.913Z,813.00
2024-04-15T08:29:51.990Z,817.00
2024-04-15T08:30:52.111Z,821.00
2024-04-15T08:31:55.392Z,822.00
2024-04-15T08:32:52.226Z,825.00
2024-04-15T08:33:52.223Z,823.00
2024-04-15T08:34:52.180Z,824.00
2024-04-15T08:35:52.167Z,824.00
2024-04-15T08:36:52.921Z,823.00
2024-04-15T08:37:52.163Z,821.00
2024-04-15T08:38:52.117Z,822.00
2024-04-15T08:39:52.902Z,838.00
2024-04-15T08:40:52.156Z,848.00
2024-04-15T08:47:18.583Z,930.00
2024-04-15T08:47:52.307Z,942.00
2024-04-15T08:48:52.307Z,1003.00
2024-04-15T08:49:52.319Z,1034.00
2024-04-15T08:50:52.332Z,969.00
2024-04-15T08:51:52.387Z,912.00
2024-04-15T08:52:52.530Z,876.00
2024-04-15T08:53:52.440Z,852.00
2024-04-15T08:54:52.558Z,849.00
2024-04-15T08:55:52.579Z,825.00
2024-04-15T08:56:52.607Z,803.00
2024-04-15T08:57:52.734Z,770.00
2024-04-15T08:58:52.677Z,752.00
2024-04-15T08:59:52.704Z,735.00
2024-04-15T09:00:52.754Z,735.00
2024-04-15T09:01:52.817Z,732.00
2024-04-15T09:02:52.864Z,725.00
2024-04-15T09:03:52.842Z,714.00
2024-04-15T09:04:56.293Z,712.00
2024-04-15T09:05:53.926Z,705.00
2024-04-15T09:06:52.950Z,691.00
2024-04-15T09:07:52.927Z,680.00
2024-04-15T09:08:52.924Z,672.00
2024-04-15T09:09:52.957Z,669.00
2024-04-15T09:10:52.945Z,666.00
2024-04-15T09:11:55.568Z,663.00
2024-04-15T09:12:52.937Z,659.00
2024-04-15T09:13:52.926Z,654.00
2024-04-15T09:14:52.925Z,647.00
2024-04-15T09:15:53.013Z,643.00
2024-04-15T09:16:53.031Z,636.00
2024-04-15T09:17:52.998Z,632.00
2024-04-15T09:18:52.940Z,627.00
2024-04-15T09:19:52.926Z,623.00
2024-04-15T09:21:00.038Z,621.00
2024-04-15T09:21:53.954Z,615.00
2024-04-15T09:22:52.938Z,612.00
2024-04-15T09:23:52.968Z,606.00
2024-04-15T09:24:52.947Z,599.00
2024-04-15T09:25:52.926Z,600.00
2024-04-15T09:26:52.939Z,603.00
2024-04-15T09:27:52.981Z,603.00
2024-04-15T09:28:52.968Z,598.00
2024-04-15T09:29:53.028Z,595.00
2024-04-15T09:30:53.147Z,597.00
2024-04-15T09:31:53.263Z,601.00
2024-04-15T09:32:53.393Z,600.00
2024-04-15T09:33:53.450Z,599.00
2024-04-15T09:34:53.530Z,597.00
2024-04-15T09:35:53.616Z,594.00
2024-04-15T09:37:53.249Z,603.00
2024-04-15T09:38:53.248Z,598.00
2024-04-15T09:39:53.281Z,596.00
2024-04-15T09:40:53.275Z,605.00
2024-04-15T09:41:53.262Z,776.00
2024-04-15T09:42:53.400Z,810.00
2024-04-15T09:43:53.272Z,831.00
2024-04-15T09:44:53.259Z,874.00
2024-04-15T09:45:53.331Z,941.00
2024-04-15T09:46:53.273Z,973.00
2024-04-15T09:47:53.464Z,966.00
2024-04-15T09:48:53.332Z,1020.00
2024-04-15T09:49:53.288Z,1009.00
2024-04-15T09:50:53.261Z,1054.00
2024-04-15T09:51:53.403Z,1087.00
2024-04-15T09:52:53.495Z,1109.00
2024-04-15T09:53:53.312Z,1134.00
2024-04-15T09:54:53.292Z,1150.00
2024-04-15T09:55:53.320Z,1164.00
2024-04-15T09:56:53.294Z,1170.00
2024-04-15T09:57:53.319Z,1179.00
2024-04-15T09:58:53.323Z,1174.00
2024-04-15T09:59:53.300Z,1119.00
2024-04-15T10:00:53.365Z,1170.00
2024-04-15T10:01:53.355Z,1192.00
2024-04-15T10:02:53.350Z,1209.00
2024-04-15T10:03:53.383Z,1220.00
2024-04-15T10:04:53.433Z,1236.00
2024-04-15T10:05:53.468Z,1258.00
2024-04-15T10:06:53.610Z,1281.00
2024-04-15T10:07:53.376Z,1321.00
2024-04-15T10:08:53.360Z,1353.00
2024-04-15T10:09:53.436Z,1370.00
2024-04-15T10:10:53.451Z,1388.00
2024-04-15T10:11:53.464Z,1409.00
2024-04-15T10:12:53.472Z,1424.00
2024-04-15T10:13:53.481Z,1442.00
2024-04-15T10:14:58.031Z,1457.00
2024-04-15T10:15:53.560Z,1478.00
2024-04-15T10:16:53.628Z,1497.00
2024-04-15T10:17:53.742Z,1530.00
2024-04-15T10:18:53.524Z,1557.00
2024-04-15T10:19:53.611Z,1578.00
2024-04-15T10:20:53.600Z,1596.00
2024-04-15T10:21:53.575Z,1625.00
2024-04-15T10:22:53.566Z,1652.00
2024-04-15T10:23:53.521Z,1681.00
2024-04-15T10:24:53.564Z,1700.00
2024-04-15T10:25:53.592Z,1716.00
2024-04-15T10:26:53.573Z,1729.00
2024-04-15T10:27:53.542Z,1742.00
2024-04-15T10:28:53.577Z,1755.00
2024-04-15T10:29:53.569Z,1774.00
2024-04-15T10:30:53.626Z,1794.00
2024-04-15T10:31:53.637Z,1815.00
2024-04-15T10:32:53.612Z,1851.00
2024-04-15T10:33:53.601Z,1875.00
2024-04-15T10:34:53.556Z,1896.00
2024-04-15T10:35:53.611Z,1911.00
2024-04-15T10:36:53.649Z,1928.00
2024-04-15T10:37:53.545Z,1943.00
2024-04-15T10:38:53.687Z,1948.00
2024-04-15T10:39:53.638Z,1939.00
2024-04-15T10:40:53.557Z,1806.00
2024-04-15T10:41:53.752Z,1785.00
2024-04-15T10:42:53.694Z,1769.00
2024-04-15T10:43:53.577Z,1747.00
2024-04-15T10:44:53.568Z,1498.00
2024-04-15T10:45:53.633Z,1553.00
2024-04-15T10:46:53.652Z,1593.00
2024-04-15T10:47:53.752Z,1589.00
2024-04-15T10:48:53.754Z,1434.00
2024-04-15T10:49:53.792Z,1571.00
2024-04-15T10:50:53.840Z,1588.00
2024-04-15T10:51:53.965Z,1585.00
2024-04-15T10:52:53.949Z,1585.00
2024-04-15T10:53:54.273Z,1586.00
2024-04-15T10:54:54.153Z,1582.00
2024-04-15T10:55:54.176Z,1581.00
2024-04-15T10:56:54.278Z,1583.00
2024-04-15T10:57:54.393Z,1592.00
2024-04-15T10:58:54.407Z,1601.00
2024-04-15T10:59:54.624Z,1613.00
2024-04-15T11:00:54.598Z,1631.00
2024-04-15T11:01:54.728Z,1642.00
2024-04-15T11:02:54.842Z,1607.00
2024-04-15T11:03:54.897Z,1487.00
2024-04-15T11:04:54.998Z,1635.00
2024-04-15T11:05:54.961Z,1665.00
2024-04-15T11:06:55.093Z,1688.00
2024-04-15T11:07:55.173Z,1590.00
2024-04-15T11:08:55.199Z,1648.00
2024-04-15T11:09:55.307Z,1671.00
2024-04-15T11:10:55.425Z,1593.00
2024-04-15T11:11:55.458Z,1611.00
2024-04-15T11:12:55.633Z,1625.00
2024-04-15T11:13:55.645Z,1634.00
2024-04-15T11:14:55.745Z,1634.00
2024-04-15T11:15:55.892Z,1626.00
2024-04-15T11:16:55.967Z,1625.00
2024-04-15T11:17:56.077Z,1622.00
2024-04-15T11:18:56.179Z,1632.00
2024-04-15T11:19:56.230Z,1638.00
2024-04-15T11:20:56.408Z,1645.00
2024-04-15T11:21:57.215Z,1646.00
2024-04-15T11:22:56.648Z,1502.00
2024-04-15T11:23:56.671Z,1425.00
2024-04-15T11:24:56.847Z,1590.00
2024-04-15T11:25:56.876Z,1596.00
2024-04-15T11:26:56.995Z,1414.00
2024-04-15T11:27:57.109Z,1408.00
2024-04-15T11:28:57.180Z,1446.00
2024-04-15T11:30:02.861Z,1305.00
2024-04-15T11:30:58.325Z,1346.00
2024-04-15T11:31:57.296Z,1345.00
2024-04-15T11:32:57.364Z,1513.00
2024-04-15T11:33:57.378Z,1541.00
2024-04-15T11:34:57.296Z,1540.00
2024-04-15T11:35:57.312Z,1520.00
2024-04-15T11:36:57.323Z,1398.00
2024-04-15T11:37:57.301Z,1389.00
2024-04-15T11:38:57.282Z,1250.00
2024-04-15T11:39:57.331Z,1269.00
2024-04-15T11:40:57.379Z,1192.00
2024-04-15T11:41:57.420Z,1179.00
2024-04-15T11:42:57.559Z,1171.00
2024-04-15T11:43:57.614Z,1109.00
2024-04-15T11:44:57.701Z,1078.00
2024-04-15T11:45:57.781Z,1064.00
2024-04-15T11:46:57.929Z,1024.00
2024-04-15T11:47:57.964Z,999.00
2024-04-15T11:48:58.106Z,977.00
2024-04-15T11:49:57.967Z,959.00
2024-04-15T11:50:58.049Z,936.00
2024-04-15T11:51:58.151Z,918.00
2024-04-15T11:52:58.211Z,894.00
2024-04-15T11:53:58.235Z,879.00
2024-04-15T11:54:58.288Z,866.00
2024-04-15T11:55:58.328Z,854.00
2024-04-15T11:56:58.392Z,844.00
2024-04-15T11:57:58.459Z,831.00
2024-04-15T11:58:58.498Z,825.00
2024-04-15T11:59:58.551Z,810.00
2024-04-15T12:00:58.815Z,795.00
2024-04-15T12:01:58.727Z,762.00
2024-04-15T12:02:58.763Z,752.00
2024-04-15T12:03:58.855Z,748.00
2024-04-15T12:04:59.002Z,744.00
2024-04-15T12:05:58.901Z,739.00
2024-04-15T12:06:58.976Z,739.00
2024-04-15T12:07:59.022Z,738.00
2024-04-15T12:08:59.033Z,742.00
2024-04-15T12:09:59.137Z,755.00
2024-04-15T12:10:59.208Z,756.00
2024-04-15T12:11:59.226Z,751.00
2024-04-15T12:12:59.309Z,739.00
2024-04-15T12:13:59.379Z,736.00
2024-04-15T12:14:59.396Z,733.00
2024-04-15T12:15:59.455Z,726.00
2024-04-15T12:16:59.540Z,715.00
2024-04-15T12:17:59.632Z,706.00
2024-04-15T12:18:59.644Z,708.00
2024-04-15T12:19:59.641Z,706.00
2024-04-15T12:20:59.788Z,701.00
2024-04-15T12:21:59.824Z,702.00
2024-04-15T12:22:59.827Z,709.00
2024-04-15T12:23:59.863Z,829.00
2024-04-15T12:25:07.274Z,808.00
2024-04-15T12:26:00.933Z,801.00
2024-04-15T12:26:59.927Z,817.00
2024-04-15T12:27:59.987Z,841.00
2024-04-15T12:28:59.895Z,860.00
2024-04-15T12:29:59.946Z,898.00
2024-04-15T12:30:59.959Z,899.00